createdAt,value
2023-02-11T00:00:13.559Z,52.67
2023-02-11T00:02:40.493Z,52.51
2023-02-11T00:05:07.458Z,53.03
2023-02-11T00:07:34.710Z,53.04
2023-02-11T00:10:06.449Z,52.96
2023-02-11T00:12:33.006Z,52.67
2023-02-11T00:14:59.490Z,52.45
2023-02-11T00:17:26.062Z,52.67
2023-02-11T00:19:52.853Z,52.90
2023-02-11T00:22:19.605Z,52.45
2023-02-11T00:24:46.235Z,52.76
2023-02-11T00:27:12.777Z,52.72
2023-02-11T00:29:39.472Z,52.52
2023-02-11T00:32:06.796Z,52.78
2023-02-11T00:34:33.945Z,52.68
2023-02-11T00:37:00.494Z,52.84
2023-02-11T00:39:27.066Z,52.60
2023-02-11T00:41:53.680Z,53.11
2023-02-11T00:44:20.431Z,52.67
2023-02-11T00:46:46.999Z,52.54
2023-02-11T00:49:14.438Z,52.86
2023-02-11T00:51:40.975Z,52.93
2023-02-11T00:54:07.962Z,52.88
2023-02-11T00:56:34.782Z,52.95
2023-02-11T00:59:01.288Z,51.09
2023-02-11T01:01:28.043Z,52.77
2023-02-11T01:03:54.560Z,50.97
2023-02-11T01:06:21.123Z,52.84
2023-02-11T01:08:47.726Z,53.03
2023-02-11T01:11:18.272Z,52.74
2023-02-11T01:13:45.528Z,53.09
2023-02-11T01:16:12.707Z,53.24
2023-02-11T01:18:39.902Z,53.16
2023-02-11T01:21:06.474Z,53.43
2023-02-11T01:23:33.335Z,53.36
2023-02-11T01:25:59.930Z,53.48
2023-02-11T01:28:28.885Z,53.28
2023-02-11T01:30:55.832Z,53.22
2023-02-11T01:33:22.984Z,53.61
2023-02-11T01:35:50.190Z,53.46
2023-02-11T01:38:25.719Z,53.74
2023-02-11T01:40:58.324Z,53.99
2023-02-11T01:43:26.872Z,54.25
2023-02-11T01:46:31.168Z,53.36
2023-02-11T01:49:12.876Z,53.63
2023-02-11T01:51:43.937Z,54.10
2023-02-11T01:54:32.620Z,54.31
2023-02-11T01:57:18.783Z,54.62
2023-02-11T02:00:06.502Z,54.31
2023-02-11T02:02:40.871Z,54.32
2023-02-11T02:05:20.556Z,55.14
2023-02-11T02:07:53.049Z,54.64
2023-02-11T02:10:25.619Z,55.52
2023-02-11T02:12:52.213Z,56.02
2023-02-11T02:15:23.631Z,54.89
2023-02-11T02:17:59.714Z,55.30
2023-02-11T02:21:07.908Z,55.18
2023-02-11T02:24:14.251Z,55.17
2023-02-11T02:26:52.731Z,56.54
2023-02-11T02:29:48.420Z,55.21
2023-02-11T02:32:30.271Z,56.40
2023-02-11T02:35:10.497Z,56.25
2023-02-11T02:37:44.943Z,55.83
2023-02-11T02:40:23.885Z,55.92
2023-02-11T02:42:51.502Z,56.79
2023-02-11T02:45:18.782Z,56.70
2023-02-11T02:47:45.620Z,56.55
2023-02-11T02:50:14.495Z,54.24
2023-02-11T02:52:57.334Z,55.94
2023-02-11T02:55:57.842Z,55.89
2023-02-11T02:59:06.704Z,55.29
2023-02-11T03:02:01.937Z,56.51
2023-02-11T03:04:43.573Z,56.22
2023-02-11T03:07:41.865Z,56.77
2023-02-11T03:10:15.778Z,57.35
2023-02-11T03:12:43.993Z,57.30
2023-02-11T03:15:12.783Z,57.23
2023-02-11T03:17:44.374Z,57.27
2023-02-11T03:20:14.603Z,56.91
2023-02-11T03:22:52.987Z,57.14
2023-02-11T03:25:20.848Z,57.48
2023-02-11T03:27:56.102Z,57.80
2023-02-11T03:30:30.436Z,57.43
2023-02-11T03:33:22.593Z,56.78
2023-02-11T03:35:56.318Z,57.46
2023-02-11T03:38:30.149Z,57.29
2023-02-11T03:40:59.905Z,57.59
2023-02-11T03:43:31.368Z,57.71
2023-02-11T03:45:59.658Z,57.75
2023-02-11T03:48:31.672Z,57.77
2023-02-11T03:51:01.256Z,58.22
2023-02-11T03:53:27.859Z,58.52
2023-02-11T03:55:56.832Z,58.16
2023-02-11T03:58:23.343Z,58.18
2023-02-11T04:00:49.869Z,58.09
2023-02-11T04:03:16.447Z,58.69
2023-02-11T04:05:42.915Z,59.08
2023-02-11T04:08:09.397Z,58.99
2023-02-11T04:10:35.856Z,58.31
2023-02-11T04:13:02.606Z,58.23
2023-02-11T04:15:29.130Z,58.81
2023-02-11T04:17:55.770Z,58.81
2023-02-11T04:20:22.221Z,58.76
2023-02-11T04:22:48.717Z,58.87
2023-02-11T04:25:15.265Z,58.88
2023-02-11T04:27:41.778Z,58.56
2023-02-11T04:30:09.552Z,58.61
2023-02-11T04:32:36.000Z,59.08
2023-02-11T04:35:03.064Z,59.13
2023-02-11T04:37:29.815Z,58.73
2023-02-11T04:39:56.244Z,56.60
2023-02-11T04:42:23.366Z,58.80
2023-02-11T04:44:49.814Z,59.13
2023-02-11T04:47:16.520Z,59.17
2023-02-11T04:49:42.978Z,59.14
2023-02-11T04:52:09.434Z,59.11
2023-02-11T04:54:35.932Z,58.82
2023-02-11T04:57:02.684Z,59.14
2023-02-11T04:59:29.367Z,59.38
2023-02-11T05:01:55.945Z,59.18
2023-02-11T05:04:22.507Z,59.35
2023-02-11T05:06:49.115Z,59.29
2023-02-11T05:09:15.735Z,59.17
2023-02-11T05:11:42.718Z,59.34
2023-02-11T05:14:09.160Z,59.35
2023-02-11T05:16:35.794Z,59.53
2023-02-11T05:19:02.382Z,59.37
2023-02-11T05:21:29.087Z,59.20
2023-02-11T05:23:55.580Z,58.83
2023-02-11T05:26:22.032Z,59.19
2023-02-11T05:28:48.563Z,59.29
2023-02-11T05:31:15.240Z,58.74
2023-02-11T05:33:41.826Z,58.95
2023-02-11T05:36:10.574Z,58.97
2023-02-11T05:38:37.483Z,59.06
2023-02-11T05:41:05.385Z,58.72
2023-02-11T05:43:32.479Z,58.81
2023-02-11T05:45:59.032Z,58.86
2023-02-11T05:48:25.560Z,58.59
2023-02-11T05:50:52.539Z,58.71
2023-02-11T05:53:19.116Z,58.78
2023-02-11T05:55:46.099Z,58.78
2023-02-11T05:58:12.580Z,58.95
2023-02-11T06:00:39.358Z,58.73
2023-02-11T06:03:05.756Z,57.60
2023-02-11T06:05:32.425Z,58.43
2023-02-11T06:07:59.395Z,58.79
2023-02-11T06:10:26.336Z,58.82
2023-02-11T06:12:52.795Z,58.59
2023-02-11T06:15:19.363Z,58.78
2023-02-11T06:17:45.835Z,58.51
2023-02-11T06:20:12.480Z,58.42
2023-02-11T06:22:38.972Z,58.74
2023-02-11T06:25:05.965Z,58.61
2023-02-11T06:27:32.508Z,58.63
2023-02-11T06:29:58.983Z,59.04
2023-02-11T06:32:43.352Z,58.81
2023-02-11T06:35:12.333Z,58.59
2023-02-11T06:37:39.686Z,58.75
2023-02-11T06:40:06.471Z,58.99
2023-02-11T06:42:32.941Z,56.63
2023-02-11T06:44:59.365Z,58.22
2023-02-11T06:47:25.892Z,58.58
2023-02-11T06:49:52.361Z,58.40
2023-02-11T06:52:18.817Z,58.88
2023-02-11T06:54:45.268Z,59.00
2023-02-11T06:57:11.723Z,58.72
2023-02-11T06:59:38.249Z,58.31
2023-02-11T07:02:04.757Z,58.73
2023-02-11T07:04:31.275Z,58.22
2023-02-11T07:06:57.710Z,58.78
2023-02-11T07:09:24.140Z,58.52
2023-02-11T07:11:50.717Z,58.71
2023-02-11T07:14:17.421Z,58.71
2023-02-11T07:16:43.888Z,58.73
2023-02-11T07:19:10.822Z,58.32
2023-02-11T07:21:37.438Z,58.76
2023-02-11T07:24:10.684Z,58.24
2023-02-11T07:26:37.423Z,58.24
2023-02-11T07:29:03.891Z,58.48
2023-02-11T07:31:31.357Z,58.32
2023-02-11T07:34:00.523Z,58.64
2023-02-11T07:36:28.158Z,58.44
2023-02-11T07:38:54.626Z,58.49
2023-02-11T07:41:23.045Z,58.67
2023-02-11T07:43:49.867Z,58.56
2023-02-11T07:46:19.282Z,56.71
2023-02-11T07:48:45.994Z,58.32
2023-02-11T07:51:13.792Z,56.51
2023-02-11T07:53:40.410Z,58.25
2023-02-11T07:56:08.262Z,58.34
2023-02-11T07:58:35.035Z,58.18
2023-02-11T08:01:08.692Z,56.68
2023-02-11T08:03:36.298Z,58.36
2023-02-11T08:06:14.982Z,57.78
2023-02-11T08:08:42.021Z,58.28
2023-02-11T08:11:15.856Z,58.45
2023-02-11T08:13:42.842Z,58.33
2023-02-11T08:16:09.887Z,58.80
2023-02-11T08:18:36.827Z,58.33
2023-02-11T08:21:07.783Z,58.32
2023-02-11T08:23:36.659Z,59.53
2023-02-11T08:26:05.384Z,58.71
2023-02-11T08:28:32.031Z,58.79
2023-02-11T08:30:58.607Z,58.23
2023-02-11T08:33:25.176Z,58.54
2023-02-11T08:35:51.638Z,58.28
2023-02-11T08:38:18.079Z,58.32
2023-02-11T08:40:44.574Z,58.34
2023-02-11T08:43:11.056Z,58.16
2023-02-11T08:45:37.689Z,58.35
2023-02-11T08:48:04.375Z,58.76
2023-02-11T08:50:32.280Z,58.91
2023-02-11T08:52:58.792Z,58.61
2023-02-11T08:55:25.268Z,58.54
2023-02-11T08:57:51.840Z,58.66
2023-02-11T09:00:18.756Z,58.91
2023-02-11T09:02:45.253Z,58.47
2023-02-11T09:05:11.846Z,58.65
2023-02-11T09:07:38.312Z,58.47
2023-02-11T09:10:06.360Z,58.33
2023-02-11T09:12:32.893Z,58.34
2023-02-11T09:14:59.487Z,58.53
2023-02-11T09:17:25.960Z,58.25
2023-02-11T09:19:52.561Z,58.22
2023-02-11T09:22:18.987Z,58.23
2023-02-11T09:24:45.464Z,58.36
2023-02-11T09:27:11.916Z,58.10
2023-02-11T09:29:38.369Z,58.00
2023-02-11T09:32:07.254Z,58.34
2023-02-11T09:34:35.040Z,58.37
2023-02-11T09:37:02.121Z,57.89
2023-02-11T09:39:29.569Z,57.86
2023-02-11T09:42:25.161Z,57.18
2023-02-11T09:44:52.408Z,58.07
2023-02-11T09:47:45.713Z,57.40
2023-02-11T09:50:25.969Z,57.50
2023-02-11T09:53:03.200Z,57.57
2023-02-11T09:57:02.704Z,57.48
2023-02-11T09:59:29.509Z,55.96
2023-02-11T10:02:18.516Z,57.17
2023-02-11T10:05:09.669Z,56.96
2023-02-11T10:07:56.139Z,57.33
2023-02-11T10:10:45.126Z,57.66
2023-02-11T10:13:32.074Z,57.20
2023-02-11T10:16:14.098Z,57.30
2023-02-11T10:18:56.779Z,58.02
2023-02-11T10:21:41.633Z,57.89
2023-02-11T10:24:12.752Z,58.21
2023-02-11T10:26:40.771Z,58.29
2023-02-11T10:29:27.498Z,57.60
2023-02-11T10:31:55.982Z,58.27
2023-02-11T10:34:24.440Z,57.91
2023-02-11T10:36:50.962Z,58.59
2023-02-11T10:39:20.620Z,58.29
2023-02-11T10:41:54.511Z,58.58
2023-02-11T10:44:32.663Z,58.46
2023-02-11T10:47:02.217Z,58.87
2023-02-11T10:49:43.262Z,58.42
2023-02-11T10:52:18.522Z,59.01
2023-02-11T10:55:14.600Z,58.25
2023-02-11T10:57:57.890Z,59.04
2023-02-11T11:00:38.918Z,58.35
2023-02-11T11:03:19.505Z,58.79
2023-02-11T11:05:57.405Z,59.44
2023-02-11T11:08:38.218Z,59.38
2023-02-11T11:11:09.051Z,59.08
2023-02-11T11:13:56.426Z,59.14
2023-02-11T11:16:24.462Z,59.23
2023-02-11T11:18:57.265Z,59.36
2023-02-11T11:21:26.832Z,59.22
2023-02-11T11:23:58.584Z,59.31
2023-02-11T11:26:40.188Z,59.67
2023-02-11T11:29:16.293Z,58.89
2023-02-11T11:31:53.259Z,59.45
2023-02-11T11:34:38.387Z,59.03
2023-02-11T11:37:22.607Z,58.97
2023-02-11T11:39:58.664Z,59.33
2023-02-11T11:42:28.735Z,59.61
2023-02-11T11:45:00.898Z,60.01
2023-02-11T11:47:31.447Z,59.30
2023-02-11T11:50:16.354Z,58.63
2023-02-11T11:52:45.916Z,59.52
2023-02-11T11:55:20.982Z,59.20
2023-02-11T11:57:47.798Z,59.78
2023-02-11T12:00:19.219Z,58.38
2023-02-11T12:03:13.978Z,58.43
2023-02-11T12:05:55.783Z,58.93
2023-02-11T12:08:30.743Z,59.44
2023-02-11T12:11:10.042Z,59.74
2023-02-11T12:14:18.553Z,58.78
2023-02-11T12:17:01.626Z,59.62
2023-02-11T12:19:37.348Z,59.65
2023-02-11T12:22:06.736Z,59.50
2023-02-11T12:24:49.722Z,59.74
2023-02-11T12:27:44.285Z,58.88
2023-02-11T12:30:21.839Z,60.13
2023-02-11T12:33:04.835Z,59.97
2023-02-11T12:35:40.145Z,59.44
2023-02-11T12:38:21.881Z,59.47
2023-02-11T12:41:10.397Z,59.79
2023-02-11T12:43:42.401Z,59.97
2023-02-11T12:46:35.737Z,59.00
2023-02-11T12:49:23.830Z,59.15
2023-02-11T12:52:31.152Z,59.14
2023-02-11T12:55:08.396Z,59.25
2023-02-11T12:57:36.248Z,58.25
2023-02-11T13:00:24.804Z,59.06
2023-02-11T13:03:40.618Z,58.94
2023-02-11T13:06:14.802Z,59.29
2023-02-11T13:08:47.990Z,59.62
2023-02-11T13:11:22.966Z,59.78
2023-02-11T13:14:06.491Z,59.22
2023-02-11T13:16:38.101Z,59.47
2023-02-11T13:19:13.834Z,59.73
2023-02-11T13:22:08.138Z,59.13
2023-02-11T13:24:41.766Z,59.38
2023-02-11T13:27:20.861Z,59.94
2023-02-11T13:30:22.361Z,58.86
2023-02-11T13:32:54.644Z,59.07
2023-02-11T13:35:29.945Z,59.25
2023-02-11T13:37:57.924Z,59.94
2023-02-11T13:40:27.615Z,59.95
2023-02-11T13:43:03.146Z,59.89
2023-02-11T13:45:49.315Z,59.80
2023-02-11T13:48:22.443Z,59.80
2023-02-11T13:50:53.284Z,60.09
2023-02-11T13:53:20.934Z,60.23
2023-02-11T13:55:51.562Z,60.28
2023-02-11T13:58:26.947Z,59.73
2023-02-11T14:00:54.013Z,60.10
2023-02-11T14:03:46.612Z,59.65
2023-02-11T14:06:33.854Z,59.96
2023-02-11T14:09:09.329Z,59.49
2023-02-11T14:11:41.988Z,59.59
2023-02-11T14:14:14.474Z,60.10
2023-02-11T14:17:02.890Z,59.58
2023-02-11T14:19:40.604Z,59.67
2023-02-11T14:22:10.160Z,59.87
2023-02-11T14:24:36.583Z,60.32
2023-02-11T14:27:15.653Z,59.95
2023-02-11T14:29:51.068Z,60.11
2023-02-11T14:32:33.517Z,60.05
2023-02-11T14:35:24.248Z,59.93
2023-02-11T14:38:19.273Z,59.46
2023-02-11T14:40:58.657Z,59.75
2023-02-11T14:43:31.082Z,60.30
2023-02-11T14:46:00.003Z,60.57
2023-02-11T14:48:38.011Z,59.88
2023-02-11T14:51:13.546Z,60.14
2023-02-11T14:53:45.191Z,60.24
2023-02-11T14:56:21.518Z,60.10
2023-02-11T14:58:51.810Z,60.53
2023-02-11T15:01:43.879Z,59.88
2023-02-11T15:04:25.112Z,59.70
2023-02-11T15:06:51.827Z,60.25
2023-02-11T15:09:24.116Z,58.24
2023-02-11T15:11:52.104Z,60.18
2023-02-11T15:14:27.223Z,59.92
2023-02-11T15:16:56.608Z,60.30
2023-02-11T15:19:41.369Z,59.67
2023-02-11T15:22:20.250Z,59.89
2023-02-11T15:24:58.536Z,59.57
2023-02-11T15:27:25.882Z,59.99
2023-02-11T15:29:52.909Z,60.25
2023-02-11T15:32:23.961Z,59.95
2023-02-11T15:34:52.775Z,60.15
2023-02-11T15:37:25.220Z,60.23
2023-02-11T15:39:53.165Z,60.56
2023-02-11T15:42:26.457Z,60.18
2023-02-11T15:45:15.955Z,59.67
2023-02-11T15:47:49.797Z,60.24
2023-02-11T15:50:24.883Z,60.33
2023-02-11T15:52:52.462Z,60.58
2023-02-11T15:55:22.299Z,60.20
2023-02-11T15:57:55.025Z,60.32
2023-02-11T16:00:24.651Z,60.34
2023-02-11T16:02:52.448Z,60.51
2023-02-11T16:05:27.252Z,59.71
2023-02-11T16:07:54.017Z,60.20
2023-02-11T16:10:25.032Z,58.51
2023-02-11T16:13:04.303Z,60.07
2023-02-11T16:15:43.776Z,59.68
2023-02-11T16:18:15.092Z,60.09
2023-02-11T16:20:47.438Z,59.86
2023-02-11T16:23:21.810Z,59.88
2023-02-11T16:25:48.481Z,59.86
2023-02-11T16:28:16.405Z,59.86
2023-02-11T16:30:43.435Z,60.08
2023-02-11T16:33:11.794Z,60.36
2023-02-11T16:35:38.551Z,60.12
2023-02-11T16:38:04.958Z,58.44
2023-02-11T16:40:31.495Z,60.25
2023-02-11T16:42:57.984Z,59.94
2023-02-11T16:45:24.556Z,59.98
2023-02-11T16:47:51.052Z,60.13
2023-02-11T16:50:23.432Z,60.11
2023-02-11T16:52:50.156Z,60.04
2023-02-11T16:55:16.630Z,58.29
2023-02-11T16:57:43.262Z,59.70
2023-02-11T17:00:11.748Z,60.07
2023-02-11T17:02:38.991Z,60.18
2023-02-11T17:05:08.989Z,60.07
2023-02-11T17:07:35.670Z,60.03
2023-02-11T17:10:02.205Z,58.49
2023-02-11T17:12:28.819Z,59.96
2023-02-11T17:14:55.327Z,59.68
2023-02-11T17:17:24.545Z,60.11
2023-02-11T17:19:51.396Z,60.00
2023-02-11T17:22:18.785Z,60.17
2023-02-11T17:24:45.372Z,59.96
2023-02-11T17:27:12.310Z,59.98
2023-02-11T17:29:39.010Z,60.24
2023-02-11T17:32:05.525Z,59.05
2023-02-11T17:34:32.492Z,59.65
2023-02-11T17:37:00.276Z,59.73
2023-02-11T17:39:27.165Z,60.07
2023-02-11T17:41:53.695Z,59.89
2023-02-11T17:44:20.438Z,60.15
2023-02-11T17:46:46.845Z,58.71
2023-02-11T17:49:13.361Z,59.75
2023-02-11T17:51:40.408Z,60.07
2023-02-11T17:54:10.796Z,60.02
2023-02-11T17:56:38.315Z,60.21
2023-02-11T17:59:06.211Z,59.95
2023-02-11T18:01:33.626Z,60.36
2023-02-11T18:04:00.746Z,60.04
2023-02-11T18:06:29.265Z,60.15
2023-02-11T18:08:57.995Z,60.24
2023-02-11T18:11:25.293Z,60.18
2023-02-11T18:13:54.541Z,59.99
2023-02-11T18:16:22.069Z,59.96
2023-02-11T18:18:49.842Z,59.87
2023-02-11T18:21:19.747Z,60.20
2023-02-11T18:23:46.626Z,60.12
2023-02-11T18:26:14.644Z,60.29
2023-02-11T18:28:44.535Z,60.02
2023-02-11T18:31:14.143Z,60.24
2023-02-11T18:33:41.657Z,59.87
2023-02-11T18:36:11.082Z,59.80
2023-02-11T18:38:37.716Z,59.76
2023-02-11T18:41:04.416Z,60.06
2023-02-11T18:43:33.551Z,58.57
2023-02-11T18:46:01.473Z,59.82
2023-02-11T18:48:28.010Z,59.58
2023-02-11T18:50:55.227Z,59.73
2023-02-11T18:53:23.271Z,59.68
2023-02-11T18:55:50.478Z,59.79
2023-02-11T18:58:17.925Z,59.74
2023-02-11T19:00:47.095Z,59.81
2023-02-11T19:03:13.740Z,59.68
2023-02-11T19:05:45.122Z,59.91
2023-02-11T19:08:11.948Z,59.85
2023-02-11T19:10:44.059Z,59.63
2023-02-11T19:13:11.306Z,59.68
2023-02-11T19:15:45.742Z,59.49
2023-02-11T19:18:13.917Z,59.77
2023-02-11T19:20:44.908Z,59.96
2023-02-11T19:23:11.544Z,59.96
2023-02-11T19:25:44.400Z,59.61
2023-02-11T19:28:10.944Z,59.63
2023-02-11T19:30:37.574Z,59.61
2023-02-11T19:33:04.075Z,59.67
2023-02-11T19:35:35.343Z,59.87
2023-02-11T19:38:03.590Z,60.04
2023-02-11T19:40:30.728Z,59.61
2023-02-11T19:42:57.236Z,60.02
2023-02-11T19:45:23.912Z,59.69
2023-02-11T19:47:54.766Z,58.64
2023-02-11T19:50:21.323Z,59.66
2023-02-11T19:52:47.859Z,60.12
2023-02-11T19:55:15.047Z,60.03
2023-02-11T19:57:41.560Z,60.19
2023-02-11T20:00:08.508Z,60.31
2023-02-11T20:02:37.944Z,60.30
2023-02-11T20:05:04.941Z,60.08
2023-02-11T20:07:31.540Z,60.18
2023-02-11T20:09:58.165Z,60.44
2023-02-11T20:12:24.713Z,60.34
2023-02-11T20:14:51.178Z,60.30
2023-02-11T20:17:17.734Z,60.37
2023-02-11T20:19:44.324Z,60.57
2023-02-11T20:22:10.811Z,60.51
2023-02-11T20:24:37.331Z,60.69
2023-02-11T20:27:03.888Z,60.67
2023-02-11T20:29:31.843Z,60.44
2023-02-11T20:31:58.570Z,60.34
2023-02-11T20:34:25.401Z,58.55
2023-02-11T20:36:52.442Z,60.27
2023-02-11T20:39:21.887Z,60.71
2023-02-11T20:41:49.073Z,60.85
2023-02-11T20:44:15.661Z,60.68
2023-02-11T20:46:46.722Z,60.91
2023-02-11T20:49:16.954Z,61.01
2023-02-11T20:51:43.809Z,61.03
2023-02-11T20:54:15.536Z,60.97
2023-02-11T20:56:42.944Z,60.76
2023-02-11T20:59:10.112Z,60.78
2023-02-11T21:01:40.887Z,59.07
2023-02-11T21:04:12.051Z,60.81
2023-02-11T21:06:41.463Z,60.83
2023-02-11T21:09:10.707Z,61.03
2023-02-11T21:11:37.691Z,61.19
2023-02-11T21:14:04.875Z,61.45
2023-02-11T21:16:32.346Z,61.24
2023-02-11T21:19:00.576Z,61.29
2023-02-11T21:21:27.140Z,61.58
2023-02-11T21:23:53.842Z,61.32
2023-02-11T21:26:20.420Z,61.49
2023-02-11T21:28:48.747Z,61.61
2023-02-11T21:31:22.574Z,61.51
2023-02-11T21:33:50.673Z,61.84
2023-02-11T21:36:17.720Z,61.99
2023-02-11T21:38:44.366Z,61.79
2023-02-11T21:41:11.667Z,61.97
2023-02-11T21:43:38.306Z,61.79
2023-02-11T21:46:14.178Z,61.35
2023-02-11T21:48:40.843Z,61.80
2023-02-11T21:51:18.718Z,62.02
2023-02-11T21:53:45.693Z,62.08
2023-02-11T21:56:15.790Z,62.07
2023-02-11T21:58:42.813Z,62.13
2023-02-11T22:01:22.217Z,61.34
2023-02-11T22:03:49.383Z,62.24
2023-02-11T22:06:26.285Z,61.92
2023-02-11T22:08:54.237Z,62.26
2023-02-11T22:11:20.867Z,62.08
2023-02-11T22:13:47.904Z,62.13
2023-02-11T22:16:16.655Z,62.14
2023-02-11T22:18:46.450Z,61.99
2023-02-11T22:21:18.557Z,62.39
2023-02-11T22:23:45.717Z,62.24
2023-02-11T22:26:20.882Z,61.88
2023-02-11T22:28:48.339Z,62.39
2023-02-11T22:31:18.284Z,62.09
2023-02-11T22:33:45.702Z,62.46
2023-02-11T22:36:24.343Z,61.95
2023-02-11T22:38:51.345Z,62.08
2023-02-11T22:41:18.899Z,62.05
2023-02-11T22:43:46.261Z,62.22
2023-02-11T22:46:15.624Z,62.22
2023-02-11T22:48:42.957Z,61.85
2023-02-11T22:51:12.931Z,61.92
2023-02-11T22:53:40.112Z,62.13
2023-02-11T22:56:10.132Z,62.17
2023-02-11T22:58:37.091Z,61.87
2023-02-11T23:01:05.744Z,62.06
2023-02-11T23:03:33.559Z,62.15
2023-02-11T23:06:01.022Z,62.32
2023-02-11T23:08:29.098Z,61.83
2023-02-11T23:10:55.690Z,62.38
2023-02-11T23:13:22.466Z,62.17
2023-02-11T23:15:48.965Z,60.30
2023-02-11T23:18:15.597Z,61.97
2023-02-11T23:20:43.918Z,61.86
2023-02-11T23:23:10.698Z,61.99
2023-02-11T23:25:41.456Z,60.24
2023-02-11T23:28:08.501Z,61.93
2023-02-11T23:30:35.270Z,62.16
2023-02-11T23:33:02.379Z,60.12
2023-02-11T23:35:29.057Z,61.99
2023-02-11T23:37:55.608Z,62.10
2023-02-11T23:40:22.354Z,62.56
2023-02-11T23:42:49.198Z,60.58
2023-02-11T23:45:15.934Z,61.99
2023-02-11T23:47:42.498Z,60.70
2023-02-11T23:50:09.650Z,62.18
2023-02-11T23:52:36.318Z,62.65
2023-02-11T23:55:03.282Z,62.57
2023-02-11T23:57:32.583Z,62.45
2023-02-11T23:59:59.197Z,62.59
